sensor_id;sensor_type;location;lat;lon;timestamp;P1;P2;P0
50589;PMS7003;36547;50.514;30.840;2023-04-01T00:00:30;30.70;25.60;16.30
50589;PMS7003;36547;50.514;30.840;2023-04-01T00:01:32;34.20;30.30;18.90
50589;PMS7003;36547;50.514;30.840;2023-04-01T00:02:34;36.30;28.90;18.50
50589;PMS7003;36547;50.514;30.840;2023-04-01T00:03:37;28.30;28.10;18.30
50589;PMS7003;36547;50.514;30.840;2023-04-01T00:04:39;29.70;28.40;17.10
50589;PMS7003;36547;50.514;30.840;2023-04-01T00:05:42;29.60;29.40;18.40
50589;PMS7003;36547;50.514;30.840;2023-04-01T00:06:44;33.10;32.10;19.20
50589;PMS7003;36547;50.514;30.840;2023-04-01T00:07:46;27.30;25.30;17.10
50589;PMS7003;36547;50.514;30.840;2023-04-01T00:08:48;35.20;29.60;19.90
50589;PMS7003;36547;50.514;30.840;2023-04-01T00:09:50;31.44;28.22;16.89
50589;PMS7003;36547;50.514;30.840;2023-04-01T00:10:53;28.90;25.10;17.80
50589;PMS7003;36547;50.514;30.840;2023-04-01T00:11:55;35.33;31.67;19.56
50589;PMS7003;36547;50.514;30.840;2023-04-01T00:12:57;24.00;20.30;9.20
50589;PMS7003;36547;50.514;30.840;2023-04-01T00:14:00;29.40;25.70;18.60
50589;PMS7003;36547;50.514;30.840;2023-04-01T00:15:03;34.90;28.60;19.20
50589;PMS7003;36547;50.514;30.840;2023-04-01T00:16:14;34.50;32.30;21.20
50589;PMS7003;36547;50.514;30.840;2023-04-01T00:17:18;29.00;27.10;17.50
50589;PMS7003;36547;50.514;30.840;2023-04-01T00:18:21;28.80;25.90;15.90
50589;PMS7003;36547;50.514;30.840;2023-04-01T00:19:23;32.50;29.20;17.90
50589;PMS7003;36547;50.514;30.840;2023-04-01T00:20:26;34.00;31.20;18.70
50589;PMS7003;36547;50.514;30.840;2023-04-01T00:21:29;31.60;27.80;17.00
50589;PMS7003;36547;50.514;30.840;2023-04-01T00:22:31;29.60;27.50;16.30
50589;PMS7003;36547;50.514;30.840;2023-04-01T00:23:33;34.90;30.40;19.60
50589;PMS7003;36547;50.514;30.840;2023-04-01T00:24:35;30.30;27.60;16.80
50589;PMS7003;36547;50.514;30.840;2023-04-01T00:25:38;33.40;27.90;16.90
50589;PMS7003;36547;50.514;30.840;2023-04-01T00:26:40;29.40;27.50;18.60
50589;PMS7003;36547;50.514;30.840;2023-04-01T00:27:42;29.00;26.56;17.00
50589;PMS7003;36547;50.514;30.840;2023-04-01T00:28:44;32.00;29.50;18.40
50589;PMS7003;36547;50.514;30.840;2023-04-01T00:29:47;34.00;27.70;17.50
50589;PMS7003;36547;50.514;30.840;2023-04-01T00:30:50;32.90;26.70;17.10
50589;PMS7003;36547;50.514;30.840;2023-04-01T00:31:52;30.00;27.10;15.50
50589;PMS7003;36547;50.514;30.840;2023-04-01T00:32:55;29.50;27.10;16.10
50589;PMS7003;36547;50.514;30.840;2023-04-01T00:33:58;28.90;24.20;15.60
50589;PMS7003;36547;50.514;30.840;2023-04-01T00:35:00;26.60;24.80;16.30
50589;PMS7003;36547;50.514;30.840;2023-04-01T00:36:06;24.20;17.50;12.50
50589;PMS7003;36547;50.514;30.840;2023-04-01T00:37:17;29.50;25.10;15.20
50589;PMS7003;36547;50.514;30.840;2023-04-01T00:38:20;28.20;24.00;16.30
50589;PMS7003;36547;50.514;30.840;2023-04-01T00:39:22;28.80;26.90;16.00
50589;PMS7003;36547;50.514;30.840;2023-04-01T00:40:32;30.80;26.80;17.00
50589;PMS7003;36547;50.514;30.840;2023-04-01T00:41:37;28.60;28.30;15.40
50589;PMS7003;36547;50.514;30.840;2023-04-01T00:42:39;33.30;27.60;15.30
50589;PMS7003;36547;50.514;30.840;2023-04-01T00:43:42;29.50;27.20;15.80
50589;PMS7003;36547;50.514;30.840;2023-04-01T00:44:53;30.60;27.30;17.40
50589;PMS7003;36547;50.514;30.840;2023-04-01T00:45:56;32.80;26.20;16.00
50589;PMS7003;36547;50.514;30.840;2023-04-01T00:47:00;28.50;25.60;17.10
50589;PMS7003;36547;50.514;30.840;2023-04-01T00:48:07;26.90;24.30;15.20
50589;PMS7003;36547;50.514;30.840;2023-04-01T00:49:16;30.40;26.30;14.80
50589;PMS7003;36547;50.514;30.840;2023-04-01T00:50:22;30.10;27.10;16.10
50589;PMS7003;36547;50.514;30.840;2023-04-01T00:51:27;32.90;26.30;16.60
50589;PMS7003;36547;50.514;30.840;2023-04-01T00:52:32;29.70;27.90;17.40
50589;PMS7003;36547;50.514;30.840;2023-04-01T00:53:35;27.10;20.70;13.70
50589;PMS7003;36547;50.514;30.840;2023-04-01T00:54:41;31.30;27.80;16.70
50589;PMS7003;36547;50.514;30.840;2023-04-01T00:55:49;28.90;25.30;16.50
50589;PMS7003;36547;50.514;30.840;2023-04-01T00:57:02;27.10;24.20;15.50
50589;PMS7003;36547;50.514;30.840;2023-04-01T00:58:11;27.00;22.20;13.60
50589;PMS7003;36547;50.514;30.840;2023-04-01T00:59:16;28.50;24.50;15.40
50589;PMS7003;36547;50.514;30.840;2023-04-01T01:00:24;25.90;22.50;14.20
50589;PMS7003;36547;50.514;30.840;2023-04-01T01:01:27;28.80;25.90;16.00
50589;PMS7003;36547;50.514;30.840;2023-04-01T01:02:31;24.80;24.30;14.90
50589;PMS7003;36547;50.514;30.840;2023-04-01T01:03:36;30.50;26.40;16.00
50589;PMS7003;36547;50.514;30.840;2023-04-01T01:04:39;32.00;28.20;16.70
50589;PMS7003;36547;50.514;30.840;2023-04-01T01:09:01;25.20;23.00;13.20
50589;PMS7003;36547;50.514;30.840;2023-04-01T01:11:37;32.20;28.20;16.80
50589;PMS7003;36547;50.514;30.840;2023-04-01T01:14:39;25.90;23.10;16.10
50589;PMS7003;36547;50.514;30.840;2023-04-01T01:16:04;25.40;21.50;13.60
50589;PMS7003;36547;50.514;30.840;2023-04-01T01:18:44;24.60;22.40;16.00
50589;PMS7003;36547;50.514;30.840;2023-04-01T01:24:13;25.00;20.70;14.80
50589;PMS7003;36547;50.514;30.840;2023-04-01T01:30:38;23.50;22.10;14.30
50589;PMS7003;36547;50.514;30.840;2023-04-01T01:32:59;29.00;25.00;15.70
50589;PMS7003;36547;50.514;30.840;2023-04-01T01:34:22;21.00;20.00;13.30
50589;PMS7003;36547;50.514;30.840;2023-04-01T01:36:45;26.60;25.60;15.30
50589;PMS7003;36547;50.514;30.840;2023-04-01T01:37:52;26.00;23.00;14.50
50589;PMS7003;36547;50.514;30.840;2023-04-01T01:38:56;28.90;26.10;15.60
50589;PMS7003;36547;50.514;30.840;2023-04-01T01:40:04;21.80;18.90;13.50
50589;PMS7003;36547;50.514;30.840;2023-04-01T01:41:10;31.10;26.40;17.60
50589;PMS7003;36547;50.514;30.840;2023-04-01T01:42:17;26.90;24.50;15.10
50589;PMS7003;36547;50.514;30.840;2023-04-01T01:43:36;35.40;28.20;16.30
50589;PMS7003;36547;50.514;30.840;2023-04-01T01:44:46;25.80;22.60;14.80
50589;PMS7003;36547;50.514;30.840;2023-04-01T01:45:52;29.80;25.60;16.30
50589;PMS7003;36547;50.514;30.840;2023-04-01T01:46:57;27.30;25.50;15.30
50589;PMS7003;36547;50.514;30.840;2023-04-01T01:48:01;30.50;27.30;16.90
50589;PMS7003;36547;50.514;30.840;2023-04-01T01:49:06;32.40;26.70;17.30
50589;PMS7003;36547;50.514;30.840;2023-04-01T01:50:12;33.50;29.40;19.00
50589;PMS7003;36547;50.514;30.840;2023-04-01T01:51:17;5.80;2.20;0.80
50589;PMS7003;36547;50.514;30.840;2023-04-01T01:52:21;28.60;28.50;17.70
50589;PMS7003;36547;50.514;30.840;2023-04-01T01:53:24;30.90;24.50;17.90
50589;PMS7003;36547;50.514;30.840;2023-04-01T01:54:27;31.30;26.70;16.60
50589;PMS7003;36547;50.514;30.840;2023-04-01T01:56:42;38.50;33.10;20.20
50589;PMS7003;36547;50.514;30.840;2023-04-01T01:57:47;35.50;31.20;19.30
50589;PMS7003;36547;50.514;30.840;2023-04-01T01:58:52;35.00;29.90;16.60
50589;PMS7003;36547;50.514;30.840;2023-04-01T02:01:16;35.50;31.40;19.70
50589;PMS7003;36547;50.514;30.840;2023-04-01T02:02:21;36.90;29.90;18.60
50589;PMS7003;36547;50.514;30.840;2023-04-01T02:03:25;34.70;29.90;18.50
50589;PMS7003;36547;50.514;30.840;2023-04-01T02:04:31;29.80;26.80;17.10
50589;PMS7003;36547;50.514;30.840;2023-04-01T02:05:34;36.09;30.64;18.18
50589;PMS7003;36547;50.514;30.840;2023-04-01T02:06:39;31.00;20.90;14.90
50589;PMS7003;36547;50.514;30.840;2023-04-01T02:08:07;27.60;23.30;15.50
50589;PMS7003;36547;50.514;30.840;2023-04-01T02:09:12;28.60;23.00;13.40
50589;PMS7003;36547;50.514;30.840;2023-04-01T02:10:14;25.00;22.73;15.82
50589;PMS7003;36547;50.514;30.840;2023-04-01T02:11:18;28.50;23.50;14.90
50589;PMS7003;36547;50.514;30.840;2023-04-01T02:12:24;25.20;23.70;15.10
50589;PMS7003;36547;50.514;30.840;2023-04-01T02:13:31;27.70;24.30;14.80
50589;PMS7003;36547;50.514;30.840;2023-04-01T02:14:37;25.10;21.40;13.90
50589;PMS7003;36547;50.514;30.840;2023-04-01T02:15:45;20.80;20.40;15.80
50589;PMS7003;36547;50.514;30.840;2023-04-01T02:17:02;26.40;21.70;14.30
50589;PMS7003;36547;50.514;30.840;2023-04-01T02:18:05;25.40;22.60;14.30
50589;PMS7003;36547;50.514;30.840;2023-04-01T02:19:09;27.20;22.00;14.50
50589;PMS7003;36547;50.514;30.840;2023-04-01T02:20:15;26.90;22.20;14.80
50589;PMS7003;36547;50.514;30.840;2023-04-01T02:21:20;27.90;22.00;14.70
50589;PMS7003;36547;50.514;30.840;2023-04-01T02:22:29;27.50;24.10;14.20
50589;PMS7003;36547;50.514;30.840;2023-04-01T02:23:36;27.40;27.20;16.90
50589;PMS7003;36547;50.514;30.840;2023-04-01T02:24:40;28.50;25.10;15.50
50589;PMS7003;36547;50.514;30.840;2023-04-01T02:25:46;28.10;24.00;14.90
50589;PMS7003;36547;50.514;30.840;2023-04-01T02:26:50;27.20;23.10;14.10
50589;PMS7003;36547;50.514;30.840;2023-04-01T02:27:53;22.20;20.90;13.30
50589;PMS7003;36547;50.514;30.840;2023-04-01T02:28:59;27.80;22.70;16.20
50589;PMS7003;36547;50.514;30.840;2023-04-01T02:30:04;27.00;23.50;15.50
50589;PMS7003;36547;50.514;30.840;2023-04-01T02:31:08;25.80;22.60;15.00
50589;PMS7003;36547;50.514;30.840;2023-04-01T02:32:13;27.90;26.60;15.00
50589;PMS7003;36547;50.514;30.840;2023-04-01T02:33:16;28.70;24.60;15.10
50589;PMS7003;36547;50.514;30.840;2023-04-01T02:34:21;24.80;22.40;14.50
50589;PMS7003;36547;50.514;30.840;2023-04-01T02:35:25;26.80;24.60;15.60
50589;PMS7003;36547;50.514;30.840;2023-04-01T02:36:28;24.09;23.27;16.09
50589;PMS7003;36547;50.514;30.840;2023-04-01T02:37:31;25.90;21.70;14.60
50589;PMS7003;36547;50.514;30.840;2023-04-01T02:38:35;25.80;23.50;15.60
50589;PMS7003;36547;50.514;30.840;2023-04-01T02:39:38;24.40;20.70;14.70
50589;PMS7003;36547;50.514;30.840;2023-04-01T02:40:51;26.90;23.70;15.80
50589;PMS7003;36547;50.514;30.840;2023-04-01T02:41:55;24.10;24.10;14.80
50589;PMS7003;36547;50.514;30.840;2023-04-01T02:42:57;32.10;27.10;16.60
50589;PMS7003;36547;50.514;30.840;2023-04-01T02:44:00;33.90;30.10;18.30
50589;PMS7003;36547;50.514;30.840;2023-04-01T02:45:02;30.40;27.50;17.80
50589;PMS7003;36547;50.514;30.840;2023-04-01T02:46:18;33.30;30.00;20.60
50589;PMS7003;36547;50.514;30.840;2023-04-01T02:47:20;31.30;27.40;17.00
50589;PMS7003;36547;50.514;30.840;2023-04-01T02:48:23;31.80;28.70;17.80
50589;PMS7003;36547;50.514;30.840;2023-04-01T02:49:28;33.20;25.70;16.90
50589;PMS7003;36547;50.514;30.840;2023-04-01T02:50:30;35.00;29.10;17.30
50589;PMS7003;36547;50.514;30.840;2023-04-01T02:51:32;28.90;26.50;15.10
50589;PMS7003;36547;50.514;30.840;2023-04-01T02:52:35;33.50;27.50;16.20
50589;PMS7003;36547;50.514;30.840;2023-04-01T02:53:38;28.10;23.00;15.40
50589;PMS7003;36547;50.514;30.840;2023-04-01T02:54:40;28.80;27.00;17.60
50589;PMS7003;36547;50.514;30.840;2023-04-01T02:55:42;27.60;25.00;15.00
50589;PMS7003;36547;50.514;30.840;2023-04-01T02:56:45;29.10;24.60;16.60
50589;PMS7003;36547;50.514;30.840;2023-04-01T02:57:48;22.70;21.20;15.10
50589;PMS7003;36547;50.514;30.840;2023-04-01T02:58:50;27.10;23.30;15.10
50589;PMS7003;36547;50.514;30.840;2023-04-01T02:59:52;29.60;25.50;16.00
50589;PMS7003;36547;50.514;30.840;2023-04-01T03:00:55;29.10;24.00;15.80
50589;PMS7003;36547;50.514;30.840;2023-04-01T03:01:58;29.90;23.80;14.90
50589;PMS7003;36547;50.514;30.840;2023-04-01T03:03:00;28.70;25.20;15.70
50589;PMS7003;36547;50.514;30.840;2023-04-01T03:04:03;27.10;23.60;14.50
50589;PMS7003;36547;50.514;30.840;2023-04-01T03:05:06;28.10;24.90;15.40
50589;PMS7003;36547;50.514;30.840;2023-04-01T03:06:10;15.55;12.18;3.18
50589;PMS7003;36547;50.514;30.840;2023-04-01T03:07:14;34.20;27.90;17.10
50589;PMS7003;36547;50.514;30.840;2023-04-01T03:08:16;33.90;29.90;18.70
50589;PMS7003;36547;50.514;30.840;2023-04-01T03:09:20;32.70;27.80;17.90
50589;PMS7003;36547;50.514;30.840;2023-04-01T03:10:23;30.00;27.10;17.70
50589;PMS7003;36547;50.514;30.840;2023-04-01T03:11:25;26.60;24.50;16.20
50589;PMS7003;36547;50.514;30.840;2023-04-01T03:12:27;25.20;23.90;16.40
50589;PMS7003;36547;50.514;30.840;2023-04-01T03:13:30;31.50;25.50;17.50
50589;PMS7003;36547;50.514;30.840;2023-04-01T03:14:32;25.20;22.90;12.50
50589;PMS7003;36547;50.514;30.840;2023-04-01T03:15:34;27.20;23.40;15.10
50589;PMS7003;36547;50.514;30.840;2023-04-01T03:16:37;25.30;22.30;14.00
50589;PMS7003;36547;50.514;30.840;2023-04-01T03:17:40;25.90;21.80;14.80
50589;PMS7003;36547;50.514;30.840;2023-04-01T03:18:44;31.70;25.20;16.10
50589;PMS7003;36547;50.514;30.840;2023-04-01T03:19:47;30.70;28.00;17.70
50589;PMS7003;36547;50.514;30.840;2023-04-01T03:20:50;30.36;26.91;18.27
50589;PMS7003;36547;50.514;30.840;2023-04-01T03:21:52;33.50;27.50;16.50
50589;PMS7003;36547;50.514;30.840;2023-04-01T03:22:55;33.60;28.10;18.70
50589;PMS7003;36547;50.514;30.840;2023-04-01T03:23:57;26.40;23.80;15.30
50589;PMS7003;36547;50.514;30.840;2023-04-01T03:24:59;26.20;22.40;15.30
50589;PMS7003;36547;50.514;30.840;2023-04-01T03:26:02;25.10;21.70;16.60
50589;PMS7003;36547;50.514;30.840;2023-04-01T03:27:04;27.00;23.20;14.70
50589;PMS7003;36547;50.514;30.840;2023-04-01T03:28:06;28.00;23.10;14.30
50589;PMS7003;36547;50.514;30.840;2023-04-01T03:29:09;27.80;24.10;16.10
50589;PMS7003;36547;50.514;30.840;2023-04-01T03:30:11;30.00;22.70;16.00
50589;PMS7003;36547;50.514;30.840;2023-04-01T03:31:15;27.50;21.50;12.60
50589;PMS7003;36547;50.514;30.840;2023-04-01T03:32:20;27.00;22.00;13.90
50589;PMS7003;36547;50.514;30.840;2023-04-01T03:33:22;24.50;22.00;15.00
50589;PMS7003;36547;50.514;30.840;2023-04-01T03:34:25;21.20;20.80;14.10
50589;PMS7003;36547;50.514;30.840;2023-04-01T03:35:28;22.30;22.20;14.50
50589;PMS7003;36547;50.514;30.840;2023-04-01T03:36:30;24.20;21.60;13.40
50589;PMS7003;36547;50.514;30.840;2023-04-01T03:37:34;23.40;20.80;13.70
50589;PMS7003;36547;50.514;30.840;2023-04-01T03:38:36;24.60;21.80;14.50
50589;PMS7003;36547;50.514;30.840;2023-04-01T03:39:39;22.30;21.10;13.90
50589;PMS7003;36547;50.514;30.840;2023-04-01T03:40:44;21.20;20.10;14.50
50589;PMS7003;36547;50.514;30.840;2023-04-01T03:41:47;29.10;22.00;15.20
50589;PMS7003;36547;50.514;30.840;2023-04-01T03:42:49;24.70;22.10;13.90
50589;PMS7003;36547;50.514;30.840;2023-04-01T03:43:52;23.00;18.70;12.40
50589;PMS7003;36547;50.514;30.840;2023-04-01T03:44:55;23.50;20.60;13.20
50589;PMS7003;36547;50.514;30.840;2023-04-01T03:45:57;24.30;21.40;12.90
50589;PMS7003;36547;50.514;30.840;2023-04-01T03:47:00;23.00;21.30;13.90
50589;PMS7003;36547;50.514;30.840;2023-04-01T03:48:03;21.10;19.50;12.90
50589;PMS7003;36547;50.514;30.840;2023-04-01T03:49:06;22.40;20.80;14.40
50589;PMS7003;36547;50.514;30.840;2023-04-01T03:50:10;20.80;19.20;13.10
50589;PMS7003;36547;50.514;30.840;2023-04-01T03:51:14;25.20;20.20;13.60
50589;PMS7003;36547;50.514;30.840;2023-04-01T03:52:16;21.80;20.40;13.80
50589;PMS7003;36547;50.514;30.840;2023-04-01T03:53:18;20.67;19.11;13.56
50589;PMS7003;36547;50.514;30.840;2023-04-01T03:54:21;24.80;22.40;13.60
50589;PMS7003;36547;50.514;30.840;2023-04-01T03:55:23;25.00;21.50;14.00
50589;PMS7003;36547;50.514;30.840;2023-04-01T03:56:26;20.10;19.80;12.70
50589;PMS7003;36547;50.514;30.840;2023-04-01T03:57:30;21.00;19.10;13.10
50589;PMS7003;36547;50.514;30.840;2023-04-01T03:58:34;23.60;19.20;13.70
50589;PMS7003;36547;50.514;30.840;2023-04-01T03:59:37;20.00;18.30;12.90
50589;PMS7003;36547;50.514;30.840;2023-04-01T04:00:40;24.09;19.55;14.00
50589;PMS7003;36547;50.514;30.840;2023-04-01T04:01:43;21.60;19.50;13.10
50589;PMS7003;36547;50.514;30.840;2023-04-01T04:02:48;21.40;20.50;13.00
50589;PMS7003;36547;50.514;30.840;2023-04-01T04:03:52;23.60;20.60;13.20
50589;PMS7003;36547;50.514;30.840;2023-04-01T04:04:56;22.00;18.80;12.00
50589;PMS7003;36547;50.514;30.840;2023-04-01T04:05:59;19.50;19.30;13.50
50589;PMS7003;36547;50.514;30.840;2023-04-01T04:07:01;24.10;19.90;12.70
50589;PMS7003;36547;50.514;30.840;2023-04-01T04:08:06;22.90;19.90;13.50
50589;PMS7003;36547;50.514;30.840;2023-04-01T04:09:08;21.20;17.80;12.30
50589;PMS7003;36547;50.514;30.840;2023-04-01T04:10:11;21.64;20.09;11.91
50589;PMS7003;36547;50.514;30.840;2023-04-01T04:11:13;22.33;20.89;14.33
50589;PMS7003;36547;50.514;30.840;2023-04-01T04:12:16;24.82;20.09;13.91
50589;PMS7003;36547;50.514;30.840;2023-04-01T04:13:18;20.90;20.50;13.70
50589;PMS7003;36547;50.514;30.840;2023-04-01T04:14:23;20.20;20.20;13.10
50589;PMS7003;36547;50.514;30.840;2023-04-01T04:15:25;23.60;21.90;15.20
50589;PMS7003;36547;50.514;30.840;2023-04-01T04:16:28;22.64;18.45;12.73
50589;PMS7003;36547;50.514;30.840;2023-04-01T04:17:33;20.50;17.90;11.20
50589;PMS7003;36547;50.514;30.840;2023-04-01T04:18:35;22.50;20.30;13.70
50589;PMS7003;36547;50.514;30.840;2023-04-01T04:19:39;25.50;22.60;14.50
50589;PMS7003;36547;50.514;30.840;2023-04-01T04:20:44;19.80;19.00;12.40
50589;PMS7003;36547;50.514;30.840;2023-04-01T04:21:47;22.60;20.30;12.50
50589;PMS7003;36547;50.514;30.840;2023-04-01T04:22:50;22.70;19.90;12.40
50589;PMS7003;36547;50.514;30.840;2023-04-01T04:23:52;24.70;20.50;13.70
50589;PMS7003;36547;50.514;30.840;2023-04-01T04:24:54;20.60;18.70;11.10
50589;PMS7003;36547;50.514;30.840;2023-04-01T04:25:58;19.70;19.70;12.50
50589;PMS7003;36547;50.514;30.840;2023-04-01T04:27:11;28.00;24.70;14.60
50589;PMS7003;36547;50.514;30.840;2023-04-01T04:28:15;23.00;22.10;14.00
50589;PMS7003;36547;50.514;30.840;2023-04-01T04:29:18;20.50;18.80;13.40
50589;PMS7003;36547;50.514;30.840;2023-04-01T04:30:20;20.10;18.20;13.30
50589;PMS7003;36547;50.514;30.840;2023-04-01T04:31:23;21.00;19.40;12.50
50589;PMS7003;36547;50.514;30.840;2023-04-01T04:32:27;20.20;19.70;14.10
50589;PMS7003;36547;50.514;30.840;2023-04-01T04:33:31;20.30;18.40;12.70
50589;PMS7003;36547;50.514;30.840;2023-04-01T04:34:35;22.00;18.70;13.10
50589;PMS7003;36547;50.514;30.840;2023-04-01T04:35:38;20.91;18.09;12.18
50589;PMS7003;36547;50.514;30.840;2023-04-01T04:36:41;22.70;18.10;12.40
50589;PMS7003;36547;50.514;30.840;2023-04-01T04:37:44;20.55;19.18;13.55
50589;PMS7003;36547;50.514;30.840;2023-04-01T04:38:47;20.60;19.20;12.70
50589;PMS7003;36547;50.514;30.840;2023-04-01T04:39:50;20.60;19.40;13.20
50589;PMS7003;36547;50.514;30.840;2023-04-01T04:40:52;19.50;18.90;13.40
50589;PMS7003;36547;50.514;30.840;2023-04-01T04:41:55;22.10;17.80;11.70
50589;PMS7003;36547;50.514;30.840;2023-04-01T04:42:57;21.60;19.20;12.60
50589;PMS7003;36547;50.514;30.840;2023-04-01T04:43:59;20.80;18.90;13.10
50589;PMS7003;36547;50.514;30.840;2023-04-01T04:45:02;20.60;15.40;11.90
50589;PMS7003;36547;50.514;30.840;2023-04-01T04:46:09;20.80;18.10;11.70
50589;PMS7003;36547;50.514;30.840;2023-04-01T04:47:13;21.70;18.90;12.50
50589;PMS7003;36547;50.514;30.840;2023-04-01T04:48:16;21.10;19.10;12.20
50589;PMS7003;36547;50.514;30.840;2023-04-01T04:49:19;23.27;21.27;13.36
50589;PMS7003;36547;50.514;30.840;2023-04-01T04:50:22;22.55;19.73;12.36
50589;PMS7003;36547;50.514;30.840;2023-04-01T04:51:25;21.10;18.70;13.00
50589;PMS7003;36547;50.514;30.840;2023-04-01T04:52:27;21.80;17.90;12.90
50589;PMS7003;36547;50.514;30.840;2023-04-01T04:53:29;20.20;16.80;11.60
50589;PMS7003;36547;50.514;30.840;2023-04-01T04:54:32;20.90;18.20;12.50
50589;PMS7003;36547;50.514;30.840;2023-04-01T04:55:36;22.10;17.70;10.80
50589;PMS7003;36547;50.514;30.840;2023-04-01T04:56:56;17.30;15.90;11.70
50589;PMS7003;36547;50.514;30.840;2023-04-01T04:58:00;20.50;19.60;13.10
50589;PMS7003;36547;50.514;30.840;2023-04-01T04:59:02;18.50;18.20;11.70
50589;PMS7003;36547;50.514;30.840;2023-04-01T05:00:08;20.40;19.60;13.20
50589;PMS7003;36547;50.514;30.840;2023-04-01T05:01:25;20.50;18.90;12.90
50589;PMS7003;36547;50.514;30.840;2023-04-01T05:02:28;22.36;18.45;11.91
50589;PMS7003;36547;50.514;30.840;2023-04-01T05:03:30;18.60;17.60;12.50
50589;PMS7003;36547;50.514;30.840;2023-04-01T05:04:35;20.10;16.30;11.40
50589;PMS7003;36547;50.514;30.840;2023-04-01T05:05:39;17.10;15.50;11.40
50589;PMS7003;36547;50.514;30.840;2023-04-01T05:06:42;20.64;19.00;12.55
50589;PMS7003;36547;50.514;30.840;2023-04-01T05:07:45;23.90;16.90;10.30
50589;PMS7003;36547;50.514;30.840;2023-04-01T05:08:48;21.80;19.40;12.00
50589;PMS7003;36547;50.514;30.840;2023-04-01T05:09:50;18.70;15.00;11.70
50589;PMS7003;36547;50.514;30.840;2023-04-01T05:10:53;19.90;17.80;12.00
50589;PMS7003;36547;50.514;30.840;2023-04-01T05:11:56;19.90;18.00;11.70
50589;PMS7003;36547;50.514;30.840;2023-04-01T05:12:59;20.70;16.90;11.90
50589;PMS7003;36547;50.514;30.840;2023-04-01T05:14:01;19.20;17.60;11.90
50589;PMS7003;36547;50.514;30.840;2023-04-01T05:15:06;20.00;17.60;12.70
50589;PMS7003;36547;50.514;30.840;2023-04-01T05:17:21;20.30;18.30;12.80
50589;PMS7003;36547;50.514;30.840;2023-04-01T05:18:23;19.55;17.00;12.18
50589;PMS7003;36547;50.514;30.840;2023-04-01T05:19:26;19.50;17.20;12.60
50589;PMS7003;36547;50.514;30.840;2023-04-01T05:20:28;21.40;18.40;12.90
50589;PMS7003;36547;50.514;30.840;2023-04-01T05:21:31;23.20;17.80;12.00
50589;PMS7003;36547;50.514;30.840;2023-04-01T05:22:34;18.10;16.70;11.50
50589;PMS7003;36547;50.514;30.840;2023-04-01T05:23:36;18.10;15.80;10.50
50589;PMS7003;36547;50.514;30.840;2023-04-01T05:24:39;16.70;16.70;12.80
50589;PMS7003;36547;50.514;30.840;2023-04-01T05:25:41;17.00;17.00;12.50
50589;PMS7003;36547;50.514;30.840;2023-04-01T05:26:45;20.00;17.70;11.90
50589;PMS7003;36547;50.514;30.840;2023-04-01T05:27:48;23.10;19.00;13.40
50589;PMS7003;36547;50.514;30.840;2023-04-01T05:28:51;18.30;16.50;12.50
50589;PMS7003;36547;50.514;30.840;2023-04-01T05:29:55;22.80;19.90;13.20
50589;PMS7003;36547;50.514;30.840;2023-04-01T05:31:00;21.30;19.00;13.60
50589;PMS7003;36547;50.514;30.840;2023-04-01T05:32:12;17.70;16.90;11.90
50589;PMS7003;36547;50.514;30.840;2023-04-01T05:33:14;20.50;19.30;12.50
50589;PMS7003;36547;50.514;30.840;2023-04-01T05:34:17;17.90;17.10;12.10
50589;PMS7003;36547;50.514;30.840;2023-04-01T05:35:20;17.91;15.64;10.82
50589;PMS7003;36547;50.514;30.840;2023-04-01T05:36:22;19.60;16.60;11.20
50589;PMS7003;36547;50.514;30.840;2023-04-01T05:37:25;18.70;16.80;11.50
50589;PMS7003;36547;50.514;30.840;2023-04-01T05:38:28;17.50;15.80;11.50
50589;PMS7003;36547;50.514;30.840;2023-04-01T05:39:31;19.20;16.50;10.70
50589;PMS7003;36547;50.514;30.840;2023-04-01T05:40:33;20.70;18.70;12.50
50589;PMS7003;36547;50.514;30.840;2023-04-01T05:41:37;20.64;19.73;12.82
50589;PMS7003;36547;50.514;30.840;2023-04-01T05:42:40;19.10;16.30;11.80
50589;PMS7003;36547;50.514;30.840;2023-04-01T05:43:42;17.40;16.20;10.80
50589;PMS7003;36547;50.514;30.840;2023-04-01T05:44:49;16.10;15.10;8.30
50589;PMS7003;36547;50.514;30.840;2023-04-01T05:45:58;19.90;18.70;14.10
50589;PMS7003;36547;50.514;30.840;2023-04-01T05:47:05;16.20;15.60;11.40
50589;PMS7003;36547;50.514;30.840;2023-04-01T05:48:07;19.40;16.40;11.00
50589;PMS7003;36547;50.514;30.840;2023-04-01T05:49:11;16.90;15.80;11.60
50589;PMS7003;36547;50.514;30.840;2023-04-01T05:50:15;19.60;18.00;12.10
50589;PMS7003;36547;50.514;30.840;2023-04-01T05:51:24;19.00;17.60;13.40
50589;PMS7003;36547;50.514;30.840;2023-04-01T05:52:26;18.70;16.40;12.10
50589;PMS7003;36547;50.514;30.840;2023-04-01T05:53:28;15.10;15.10;10.90
50589;PMS7003;36547;50.514;30.840;2023-04-01T05:54:30;18.80;17.00;10.30
50589;PMS7003;36547;50.514;30.840;2023-04-01T05:55:34;20.00;15.00;11.00
50589;PMS7003;36547;50.514;30.840;2023-04-01T05:56:37;19.40;16.80;11.00
50589;PMS7003;36547;50.514;30.840;2023-04-01T05:57:40;17.50;13.40;9.90
50589;PMS7003;36547;50.514;30.840;2023-04-01T05:58:42;17.60;15.80;10.50
50589;PMS7003;36547;50.514;30.840;2023-04-01T05:59:45;16.73;15.36;11.55
50589;PMS7003;36547;50.514;30.840;2023-04-01T06:00:47;19.30;15.60;11.30
50589;PMS7003;36547;50.514;30.840;2023-04-01T06:01:52;18.30;15.90;11.40
50589;PMS7003;36547;50.514;30.840;2023-04-01T06:02:54;22.00;15.80;11.00
50589;PMS7003;36547;50.514;30.840;2023-04-01T06:04:05;24.20;19.10;14.20
50589;PMS7003;36547;50.514;30.840;2023-04-01T06:05:18;23.09;19.82;12.64
50589;PMS7003;36547;50.514;30.840;2023-04-01T06:06:25;14.40;14.30;11.40
50589;PMS7003;36547;50.514;30.840;2023-04-01T06:07:31;15.10;13.90;10.00
50589;PMS7003;36547;50.514;30.840;2023-04-01T06:08:34;18.20;17.90;11.90
50589;PMS7003;36547;50.514;30.840;2023-04-01T06:09:43;23.00;22.40;14.30
50589;PMS7003;36547;50.514;30.840;2023-04-01T06:13:42;19.60;18.20;13.20
50589;PMS7003;36547;50.514;30.840;2023-04-01T06:16:55;20.00;17.90;12.50
50589;PMS7003;36547;50.514;30.840;2023-04-01T06:19:16;22.90;19.30;11.70
50589;PMS7003;36547;50.514;30.840;2023-04-01T06:21:56;15.70;12.90;10.30
50589;PMS7003;36547;50.514;30.840;2023-04-01T06:28:23;19.00;16.40;10.40
50589;PMS7003;36547;50.514;30.840;2023-04-01T06:29:52;17.70;14.60;10.70
50589;PMS7003;36547;50.514;30.840;2023-04-01T06:31:25;21.70;17.40;11.40
50589;PMS7003;36547;50.514;30.840;2023-04-01T06:33:48;19.30;16.00;11.10
50589;PMS7003;36547;50.514;30.840;2023-04-01T06:42:38;20.90;17.20;12.10